createdAt,value
2019-05-18T00:02:00.972Z,22.74
2019-05-18T00:04:34.442Z,22.73
2019-05-18T00:07:07.758Z,22.93
2019-05-18T00:09:41.142Z,22.81
2019-05-18T00:12:14.481Z,23.03
2019-05-18T00:14:47.960Z,22.85
2019-05-18T00:17:25.275Z,22.79
2019-05-18T00:19:56.681Z,22.89
2019-05-18T00:22:30.020Z,22.79
2019-05-18T00:25:05.210Z,22.90
2019-05-18T00:27:38.651Z,22.78
2019-05-18T00:30:11.967Z,22.74
2019-05-18T00:32:45.403Z,22.72
2019-05-18T00:35:18.793Z,22.96
2019-05-18T00:37:52.141Z,22.80
2019-05-18T00:40:25.471Z,22.74
2019-05-18T00:42:58.948Z,22.59
2019-05-18T00:45:32.268Z,22.70
2019-05-18T00:48:05.610Z,22.85
2019-05-18T00:50:39.002Z,22.73
2019-05-18T00:53:12.313Z,22.69
2019-05-18T00:55:45.670Z,22.65
2019-05-18T00:58:18.981Z,22.66
2019-05-18T01:00:53.405Z,22.63
2019-05-18T01:03:26.716Z,22.32
2019-05-18T01:06:00.088Z,22.66
2019-05-18T01:08:33.707Z,22.75
2019-05-18T01:11:07.651Z,22.67
2019-05-18T01:13:42.631Z,22.62
2019-05-18T01:16:15.991Z,22.60
2019-05-18T01:18:49.304Z,22.54
2019-05-18T01:21:22.755Z,22.53
2019-05-18T01:23:56.138Z,22.49
2019-05-18T01:26:29.695Z,22.51
2019-05-18T01:29:03.517Z,22.47
2019-05-18T01:31:36.881Z,22.45
2019-05-18T01:34:10.195Z,22.46
2019-05-18T01:36:43.809Z,22.62
2019-05-18T01:39:17.140Z,22.51
2019-05-18T01:41:50.615Z,22.48
2019-05-18T01:44:23.981Z,22.47
2019-05-18T01:46:57.301Z,22.77
2019-05-18T01:49:30.723Z,22.61
2019-05-18T01:52:05.202Z,22.56
2019-05-18T01:54:38.613Z,22.51
2019-05-18T01:57:12.139Z,22.47
2019-05-18T01:59:45.484Z,22.47
2019-05-18T02:02:18.834Z,22.45
2019-05-18T02:04:52.237Z,22.44
2019-05-18T02:07:25.571Z,22.45
2019-05-18T02:09:58.927Z,22.43
2019-05-18T02:12:33.825Z,22.40
2019-05-18T02:15:08.019Z,22.53
2019-05-18T02:17:41.320Z,22.41
2019-05-18T02:20:14.734Z,22.40
2019-05-18T02:22:48.032Z,22.40
2019-05-18T02:25:21.397Z,22.40
2019-05-18T02:27:54.593Z,22.39
2019-05-18T02:30:27.923Z,22.38
2019-05-18T02:33:01.250Z,22.38
2019-05-18T02:35:34.609Z,22.38
2019-05-18T02:38:07.909Z,22.51
2019-05-18T02:40:41.249Z,22.40
2019-05-18T02:43:15.271Z,22.36
2019-05-18T02:45:48.587Z,22.34
2019-05-18T02:48:21.967Z,22.36
2019-05-18T02:50:56.353Z,22.35
2019-05-18T02:53:29.689Z,22.40
2019-05-18T02:56:03.009Z,22.35
2019-05-18T02:58:36.373Z,22.37
2019-05-18T03:01:09.675Z,22.34
2019-05-18T03:03:43.038Z,22.31
2019-05-18T03:06:16.187Z,22.31
2019-05-18T03:08:49.521Z,22.32
2019-05-18T03:11:22.906Z,22.31
2019-05-18T03:13:56.250Z,22.57
2019-05-18T03:16:29.564Z,22.40
2019-05-18T03:19:08.313Z,22.36
2019-05-18T03:21:37.971Z,22.34
2019-05-18T03:24:12.411Z,22.35
2019-05-18T03:26:45.727Z,22.29
2019-05-18T03:29:19.062Z,22.28
2019-05-18T03:31:52.383Z,22.31
2019-05-18T03:34:25.760Z,22.28
2019-05-18T03:36:59.073Z,22.20
2019-05-18T03:39:32.410Z,22.23
2019-05-18T03:42:05.731Z,22.33
2019-05-18T03:44:39.103Z,22.44
2019-05-18T03:47:12.474Z,22.61
2019-05-18T03:49:46.986Z,22.75
2019-05-18T03:52:20.286Z,22.90
2019-05-18T03:54:53.631Z,23.05
2019-05-18T03:57:26.927Z,23.19
2019-05-18T04:00:00.296Z,23.32
2019-05-18T04:02:33.594Z,23.44
2019-05-18T04:05:07.186Z,23.69
2019-05-18T04:07:40.514Z,23.78
2019-05-18T04:10:13.875Z,23.91
2019-05-18T04:12:47.270Z,23.95
2019-05-18T04:15:20.660Z,24.29
2019-05-18T04:17:53.961Z,24.21
2019-05-18T04:20:27.382Z,24.21
2019-05-18T04:23:00.689Z,24.22
2019-05-18T04:25:34.044Z,24.26
2019-05-18T04:28:07.401Z,24.22
2019-05-18T04:30:40.756Z,24.25
2019-05-18T04:33:14.118Z,24.21
2019-05-18T04:35:47.503Z,24.17
2019-05-18T04:38:20.826Z,24.14
2019-05-18T04:40:54.195Z,24.14
2019-05-18T04:43:27.518Z,24.17
2019-05-18T04:46:01.523Z,24.16
2019-05-18T04:48:34.847Z,24.16
2019-05-18T04:51:10.226Z,24.18
2019-05-18T04:53:43.607Z,24.17
2019-05-18T04:56:16.969Z,24.18
2019-05-18T04:58:50.639Z,24.19
2019-05-18T05:01:24.082Z,24.51
2019-05-18T05:03:57.468Z,24.28
2019-05-18T05:06:30.839Z,24.50
2019-05-18T05:09:06.389Z,24.30
2019-05-18T05:11:39.989Z,24.26
2019-05-18T05:14:14.378Z,24.26
2019-05-18T05:16:47.734Z,24.21
2019-05-18T05:19:21.039Z,24.19
2019-05-18T05:21:54.410Z,24.13
2019-05-18T05:24:27.914Z,24.17
2019-05-18T05:27:02.820Z,24.16
2019-05-18T05:29:36.274Z,24.14
2019-05-18T05:32:09.819Z,24.12
2019-05-18T05:34:43.553Z,24.47
2019-05-18T05:37:16.873Z,24.30
2019-05-18T05:39:50.281Z,24.29
2019-05-18T05:42:23.637Z,24.38
2019-05-18T05:44:56.993Z,24.23
2019-05-18T05:47:30.626Z,24.34
2019-05-18T05:50:07.519Z,24.22
2019-05-18T05:52:42.120Z,23.75
2019-05-18T05:55:15.510Z,24.25
2019-05-18T05:57:48.830Z,24.19
2019-05-18T06:00:22.201Z,24.21
2019-05-18T06:02:55.517Z,24.15
2019-05-18T06:05:28.879Z,24.09
2019-05-18T06:08:02.185Z,24.10
2019-05-18T06:10:35.564Z,24.10
2019-05-18T06:13:08.888Z,24.14
2019-05-18T06:15:43.041Z,24.18
2019-05-18T06:18:17.399Z,24.14
2019-05-18T06:20:51.952Z,24.07
2019-05-18T06:23:25.708Z,24.11
2019-05-18T06:25:59.152Z,24.14
2019-05-18T06:28:32.545Z,24.44
2019-05-18T06:31:05.897Z,24.26
2019-05-18T06:33:39.340Z,24.37
2019-05-18T06:36:12.663Z,24.25
2019-05-18T06:38:46.430Z,24.25
2019-05-18T06:41:20.402Z,24.39
2019-05-18T06:43:53.764Z,24.24
2019-05-18T06:46:27.317Z,24.37
2019-05-18T06:49:00.657Z,24.25
2019-05-18T06:51:34.042Z,24.25
2019-05-18T06:54:07.530Z,24.22
2019-05-18T06:56:40.840Z,24.23
2019-05-18T06:59:16.448Z,24.19
2019-05-18T07:01:49.907Z,24.50
2019-05-18T07:04:23.465Z,24.37
2019-05-18T07:06:56.795Z,24.42
2019-05-18T07:09:30.114Z,24.43
2019-05-18T07:12:03.751Z,24.46
2019-05-18T07:14:37.091Z,24.70
2019-05-18T07:17:10.437Z,24.59
2019-05-18T07:19:43.798Z,24.55
2019-05-18T07:22:17.172Z,24.50
2019-05-18T07:24:50.483Z,24.46
2019-05-18T07:27:23.849Z,24.43
2019-05-18T07:29:57.255Z,24.50
2019-05-18T07:32:30.673Z,24.53
2019-05-18T07:35:04.370Z,24.61
2019-05-18T07:37:37.743Z,25.06
2019-05-18T07:40:11.449Z,24.90
2019-05-18T07:42:44.861Z,25.25
2019-05-18T07:45:18.257Z,25.00
2019-05-18T07:47:51.596Z,24.98
2019-05-18T07:50:26.053Z,24.96
2019-05-18T07:52:59.397Z,24.89
2019-05-18T07:55:32.746Z,24.88
2019-05-18T07:58:06.060Z,24.87
2019-05-18T08:00:39.755Z,24.92
2019-05-18T08:03:13.130Z,24.98
2019-05-18T08:05:46.460Z,24.99
2019-05-18T08:08:19.783Z,25.20
2019-05-18T08:10:53.238Z,25.16
2019-05-18T08:13:26.563Z,25.17
2019-05-18T08:15:59.903Z,25.19
2019-05-18T08:18:33.269Z,25.16
2019-05-18T08:21:06.746Z,25.20
2019-05-18T08:23:40.138Z,25.27
2019-05-18T08:26:13.553Z,25.26
2019-05-18T08:28:46.925Z,25.39
2019-05-18T08:31:20.239Z,25.34
2019-05-18T08:33:54.867Z,25.30
2019-05-18T08:36:28.754Z,25.29
2019-05-18T08:39:02.536Z,25.29
2019-05-18T08:41:36.118Z,25.22
2019-05-18T08:44:09.435Z,25.19
2019-05-18T08:46:42.804Z,25.26
2019-05-18T08:49:16.331Z,25.60
2019-05-18T08:51:49.766Z,25.32
2019-05-18T08:54:23.077Z,25.34
2019-05-18T08:56:56.431Z,25.75
2019-05-18T08:59:29.793Z,25.51
2019-05-18T09:02:03.151Z,25.72
2019-05-18T09:04:36.513Z,25.48
2019-05-18T09:07:09.902Z,25.38
2019-05-18T09:09:43.275Z,25.33
2019-05-18T09:12:16.606Z,25.37
2019-05-18T09:14:50.122Z,25.33
2019-05-18T09:17:23.499Z,25.33
2019-05-18T09:19:56.810Z,25.30
2019-05-18T09:22:30.149Z,25.60
2019-05-18T09:25:07.047Z,25.44
2019-05-18T09:27:40.398Z,25.46
2019-05-18T09:30:13.861Z,25.37
2019-05-18T09:32:47.179Z,25.39
2019-05-18T09:35:21.763Z,25.47
2019-05-18T09:37:55.143Z,25.37
2019-05-18T09:40:30.129Z,25.41
2019-05-18T09:43:03.486Z,25.41
2019-05-18T09:45:36.790Z,25.40
2019-05-18T09:48:10.208Z,25.39
2019-05-18T09:50:45.119Z,25.37
2019-05-18T09:53:19.546Z,25.36
2019-05-18T09:55:52.864Z,25.33
2019-05-18T09:58:26.205Z,25.31
2019-05-18T10:00:59.526Z,25.31
2019-05-18T10:03:32.921Z,25.70
2019-05-18T10:06:06.269Z,25.53
2019-05-18T10:08:40.173Z,25.46
2019-05-18T10:11:13.541Z,25.46
2019-05-18T10:13:46.939Z,25.46
2019-05-18T10:16:20.287Z,25.71
2019-05-18T10:18:54.677Z,25.58
2019-05-18T10:21:28.108Z,25.51
2019-05-18T10:24:01.421Z,25.49
2019-05-18T10:26:34.773Z,25.45
2019-05-18T10:29:08.106Z,25.61
2019-05-18T10:31:41.436Z,25.58
2019-05-18T10:34:15.006Z,25.50
2019-05-18T10:36:48.390Z,25.48
2019-05-18T10:39:21.709Z,25.49
2019-05-18T10:41:55.068Z,25.51
2019-05-18T10:44:28.584Z,25.47
2019-05-18T10:47:01.967Z,25.48
2019-05-18T10:49:35.297Z,25.73
2019-05-18T10:52:09.731Z,25.57
2019-05-18T10:54:43.078Z,25.54
2019-05-18T10:57:16.394Z,25.93
2019-05-18T10:59:49.998Z,25.68
2019-05-18T11:02:23.312Z,25.58
2019-05-18T11:04:57.373Z,25.59
2019-05-18T11:07:30.693Z,25.56
2019-05-18T11:10:06.170Z,25.51
2019-05-18T11:12:39.468Z,25.54
2019-05-18T11:15:12.821Z,25.50
2019-05-18T11:17:46.421Z,25.51
2019-05-18T11:20:19.827Z,25.54
2019-05-18T11:22:53.168Z,25.53
2019-05-18T11:25:26.490Z,25.54
2019-05-18T11:28:00.343Z,25.50
2019-05-18T11:30:33.699Z,25.54
2019-05-18T11:33:07.037Z,25.55
2019-05-18T11:35:40.485Z,25.58
2019-05-18T11:38:13.927Z,25.55
2019-05-18T11:40:47.283Z,25.55
2019-05-18T11:43:20.606Z,25.77
2019-05-18T11:45:53.969Z,25.66
2019-05-18T11:48:27.271Z,25.60
2019-05-18T11:51:00.648Z,25.60
2019-05-18T11:53:34.005Z,25.59
2019-05-18T11:56:07.315Z,25.53
2019-05-18T11:58:40.647Z,25.56
2019-05-18T12:01:13.970Z,25.58
2019-05-18T12:03:47.331Z,25.91
2019-05-18T12:06:21.708Z,25.78
2019-05-18T12:08:58.492Z,25.74
2019-05-18T12:11:30.058Z,25.66
2019-05-18T12:14:03.453Z,25.67
2019-05-18T12:16:36.871Z,25.76
2019-05-18T12:19:10.204Z,25.67
2019-05-18T12:21:43.608Z,25.66
2019-05-18T12:24:17.109Z,25.60
2019-05-18T12:26:50.457Z,25.59
2019-05-18T12:29:23.796Z,25.55
2019-05-18T12:31:57.428Z,25.51
2019-05-18T12:34:30.787Z,25.50
2019-05-18T12:37:04.119Z,25.45
2019-05-18T12:39:37.623Z,25.44
2019-05-18T12:42:11.178Z,25.47
2019-05-18T12:44:44.562Z,25.79
2019-05-18T12:47:17.861Z,25.59
2019-05-18T12:49:51.225Z,25.61
2019-05-18T12:52:25.269Z,25.60
2019-05-18T12:54:58.971Z,25.58
2019-05-18T12:57:32.302Z,25.59
2019-05-18T13:00:07.884Z,25.57
2019-05-18T13:02:41.284Z,25.55
2019-05-18T13:05:14.813Z,25.55
2019-05-18T13:07:48.153Z,25.58
2019-05-18T13:10:21.519Z,25.58
2019-05-18T13:12:54.841Z,25.61
2019-05-18T13:15:28.280Z,25.59
2019-05-18T13:18:01.704Z,25.57
2019-05-18T13:20:35.109Z,25.56
2019-05-18T13:23:08.489Z,25.57
2019-05-18T13:25:42.630Z,25.62
2019-05-18T13:28:16.529Z,25.57
2019-05-18T13:30:49.910Z,25.54
2019-05-18T13:33:23.224Z,25.50
2019-05-18T13:35:56.766Z,25.50
2019-05-18T13:38:30.112Z,25.52
2019-05-18T13:41:03.633Z,25.91
2019-05-18T13:43:38.015Z,25.74
2019-05-18T13:46:11.376Z,25.69
2019-05-18T13:48:44.977Z,25.69
2019-05-18T13:51:18.407Z,25.70
2019-05-18T13:53:53.351Z,25.82
2019-05-18T13:56:26.689Z,25.71
2019-05-18T13:59:00.039Z,25.66
2019-05-18T14:01:33.540Z,25.86
2019-05-18T14:04:07.134Z,25.67
2019-05-18T14:06:40.445Z,25.68
2019-05-18T14:09:13.836Z,26.07
2019-05-18T14:11:47.112Z,25.81
2019-05-18T14:14:20.452Z,25.72
2019-05-18T14:16:53.822Z,25.66
2019-05-18T14:19:27.198Z,25.62
2019-05-18T14:22:00.513Z,25.82
2019-05-18T14:24:33.856Z,25.63
2019-05-18T14:27:07.166Z,25.58
2019-05-18T14:29:40.517Z,25.55
2019-05-18T14:32:13.925Z,25.50
2019-05-18T14:34:47.271Z,25.47
2019-05-18T14:37:20.578Z,25.44
2019-05-18T14:39:54.074Z,25.40
2019-05-18T14:42:27.411Z,25.39
2019-05-18T14:45:00.799Z,25.38
2019-05-18T14:47:34.995Z,25.37
2019-05-18T14:50:09.397Z,25.65
2019-05-18T14:52:42.801Z,25.45
2019-05-18T14:55:16.159Z,25.40
2019-05-18T14:57:49.461Z,25.72
2019-05-18T15:00:22.886Z,25.53
2019-05-18T15:02:56.213Z,25.59
2019-05-18T15:05:29.598Z,25.54
2019-05-18T15:08:02.940Z,25.54
2019-05-18T15:10:36.331Z,25.52
2019-05-18T15:13:09.768Z,25.42
2019-05-18T15:15:43.137Z,25.38
2019-05-18T15:18:16.496Z,25.61
2019-05-18T15:20:49.844Z,25.41
2019-05-18T15:23:23.186Z,25.37
2019-05-18T15:25:56.534Z,25.34
2019-05-18T15:28:30.153Z,25.30
2019-05-18T15:31:03.589Z,25.47
2019-05-18T15:33:36.966Z,25.35
2019-05-18T15:36:11.514Z,25.30
2019-05-18T15:38:45.140Z,25.50
2019-05-18T15:41:18.499Z,25.32
2019-05-18T15:43:51.890Z,25.27
2019-05-18T15:46:25.379Z,25.21
2019-05-18T15:48:58.861Z,25.16
2019-05-18T15:51:32.492Z,25.21
2019-05-18T15:54:05.841Z,25.13
2019-05-18T15:56:39.429Z,25.10
2019-05-18T15:59:12.841Z,25.09
2019-05-18T16:01:46.224Z,25.05
2019-05-18T16:04:20.282Z,25.04
2019-05-18T16:06:53.874Z,25.01
2019-05-18T16:09:27.277Z,25.00
2019-05-18T16:12:00.619Z,24.96
2019-05-18T16:14:34.018Z,24.94
2019-05-18T16:17:07.381Z,24.95
2019-05-18T16:19:40.767Z,25.11
2019-05-18T16:22:14.180Z,24.98
2019-05-18T16:24:47.522Z,24.94
2019-05-18T16:27:22.526Z,25.28
2019-05-18T16:29:56.041Z,25.11
2019-05-18T16:32:29.613Z,25.06
2019-05-18T16:35:05.818Z,25.01
2019-05-18T16:37:39.168Z,25.02
2019-05-18T16:40:13.786Z,25.25
2019-05-18T16:42:47.305Z,25.12
2019-05-18T16:45:20.695Z,25.05
2019-05-18T16:47:54.133Z,25.34
2019-05-18T16:50:27.602Z,25.16
2019-05-18T16:53:01.070Z,25.22
2019-05-18T16:55:34.435Z,25.08
2019-05-18T16:58:07.751Z,25.07
2019-05-18T17:00:41.228Z,25.04
2019-05-18T17:03:14.623Z,25.04
2019-05-18T17:05:48.175Z,25.02
2019-05-18T17:08:22.389Z,25.06
2019-05-18T17:10:55.752Z,25.10
2019-05-18T17:13:29.072Z,25.19
2019-05-18T17:16:04.030Z,25.17
2019-05-18T17:18:37.382Z,25.17
2019-05-18T17:21:10.970Z,25.46
2019-05-18T17:23:44.309Z,25.30
2019-05-18T17:26:17.943Z,25.27
2019-05-18T17:28:51.283Z,25.56
2019-05-18T17:31:24.620Z,25.42
2019-05-18T17:33:57.947Z,25.52
2019-05-18T17:36:31.474Z,25.44
2019-05-18T17:39:05.739Z,25.35
2019-05-18T17:41:39.122Z,25.60
2019-05-18T17:44:12.671Z,25.41
2019-05-18T17:46:46.069Z,25.40
2019-05-18T17:49:26.854Z,25.40
2019-05-18T17:51:54.484Z,25.38
2019-05-18T17:54:27.795Z,25.37
2019-05-18T17:57:08.336Z,25.36
2019-05-18T17:59:36.178Z,25.36
2019-05-18T18:02:09.542Z,25.60
2019-05-18T18:04:44.455Z,25.43
2019-05-18T18:07:17.799Z,25.37
2019-05-18T18:09:51.128Z,25.33
2019-05-18T18:12:24.554Z,25.30
2019-05-18T18:14:57.931Z,25.26
2019-05-18T18:17:32.334Z,25.20
2019-05-18T18:20:06.060Z,25.12
2019-05-18T18:22:39.447Z,25.02
2019-05-18T18:25:12.756Z,25.01
2019-05-18T18:27:46.132Z,24.95
2019-05-18T18:30:19.668Z,24.91
2019-05-18T18:32:53.039Z,24.87
2019-05-18T18:35:26.378Z,25.11
2019-05-18T18:37:59.850Z,24.91
2019-05-18T18:40:34.528Z,24.89
2019-05-18T18:43:08.608Z,24.84
2019-05-18T18:45:44.345Z,24.77
2019-05-18T18:48:17.929Z,24.90
2019-05-18T18:50:51.290Z,24.76
2019-05-18T18:53:24.598Z,24.70
2019-05-18T18:55:58.010Z,24.67
2019-05-18T18:58:31.567Z,24.62
2019-05-18T19:01:04.916Z,24.62
2019-05-18T19:03:38.428Z,24.59
2019-05-18T19:06:11.907Z,24.56
2019-05-18T19:08:45.348Z,24.55
2019-05-18T19:11:18.918Z,24.55
2019-05-18T19:13:52.271Z,24.57
2019-05-18T19:16:25.643Z,24.56
2019-05-18T19:18:58.988Z,24.57
2019-05-18T19:21:32.587Z,24.58
2019-05-18T19:24:05.920Z,24.60
2019-05-18T19:26:39.384Z,24.60
2019-05-18T19:29:12.717Z,24.56
2019-05-18T19:31:46.094Z,24.56
2019-05-18T19:34:19.434Z,24.75
2019-05-18T19:36:52.781Z,24.58
2019-05-18T19:39:26.129Z,24.61
2019-05-18T19:41:59.577Z,24.61
2019-05-18T19:44:32.972Z,24.57
2019-05-18T19:47:06.648Z,24.66
2019-05-18T19:49:40.431Z,24.61
2019-05-18T19:52:14.998Z,24.53
2019-05-18T19:54:48.337Z,24.75
2019-05-18T19:57:21.844Z,24.56
2019-05-18T19:59:55.198Z,24.46
2019-05-18T20:02:28.548Z,24.37
2019-05-18T20:05:08.031Z,24.28
2019-05-18T20:07:36.935Z,24.40
2019-05-18T20:10:11.547Z,24.35
2019-05-18T20:12:45.882Z,24.37
2019-05-18T20:15:19.196Z,24.38
2019-05-18T20:17:52.553Z,24.39
2019-05-18T20:20:26.068Z,24.39
2019-05-18T20:23:00.984Z,24.39
2019-05-18T20:25:34.353Z,24.40
2019-05-18T20:28:07.754Z,24.68
2019-05-18T20:30:41.163Z,24.53
2019-05-18T20:33:14.496Z,24.57
2019-05-18T20:35:48.167Z,24.51
2019-05-18T20:38:21.490Z,24.49
2019-05-18T20:40:54.817Z,24.70
2019-05-18T20:43:28.264Z,24.53
2019-05-18T20:46:01.627Z,24.51
2019-05-18T20:48:35.745Z,24.49
2019-05-18T20:51:09.152Z,24.47
2019-05-18T20:53:42.541Z,24.57
2019-05-18T20:56:15.890Z,24.49
2019-05-18T20:58:49.472Z,24.44
2019-05-18T21:01:23.639Z,24.75
2019-05-18T21:03:56.960Z,24.52
2019-05-18T21:06:30.320Z,24.50
2019-05-18T21:09:04.514Z,24.49
2019-05-18T21:11:39.037Z,24.49
2019-05-18T21:14:12.387Z,24.72
2019-05-18T21:16:45.725Z,24.55
2019-05-18T21:19:19.329Z,24.52
2019-05-18T21:21:52.667Z,24.79
2019-05-18T21:24:26.188Z,24.59
2019-05-18T21:26:59.500Z,24.70
2019-05-18T21:29:32.834Z,24.56
2019-05-18T21:32:06.157Z,24.50
2019-05-18T21:34:39.518Z,24.70
2019-05-18T21:37:12.875Z,24.57
2019-05-18T21:39:46.223Z,24.53
2019-05-18T21:42:19.525Z,24.39
2019-05-18T21:44:52.887Z,24.43
2019-05-18T21:47:26.206Z,24.41
2019-05-18T21:49:59.572Z,24.37
2019-05-18T21:52:32.883Z,24.42
2019-05-18T21:55:06.226Z,24.72
2019-05-18T21:57:39.543Z,24.50
2019-05-18T22:00:12.950Z,24.52
2019-05-18T22:02:47.893Z,24.43
2019-05-18T22:05:21.268Z,24.42
2019-05-18T22:07:54.658Z,24.65
2019-05-18T22:10:28.022Z,24.48
2019-05-18T22:13:01.345Z,24.46
2019-05-18T22:15:34.735Z,24.76
2019-05-18T22:18:22.193Z,24.56
2019-05-18T22:20:44.429Z,24.47
2019-05-18T22:23:17.930Z,24.44
2019-05-18T22:25:51.647Z,24.41
2019-05-18T22:28:24.980Z,24.67
2019-05-18T22:30:58.341Z,24.51
2019-05-18T22:33:31.659Z,24.58
2019-05-18T22:36:05.037Z,24.42
2019-05-18T22:38:38.375Z,24.39
2019-05-18T22:41:11.751Z,24.62
2019-05-18T22:43:45.085Z,24.43
2019-05-18T22:46:18.420Z,24.39
2019-05-18T22:48:51.854Z,24.34
2019-05-18T22:51:25.220Z,24.31
2019-05-18T22:53:58.547Z,24.45
2019-05-18T22:56:31.929Z,24.34
2019-05-18T22:59:06.729Z,24.32
2019-05-18T23:01:40.097Z,24.29
2019-05-18T23:04:13.524Z,24.26
2019-05-18T23:06:46.864Z,24.35
2019-05-18T23:09:20.256Z,24.27
2019-05-18T23:11:53.610Z,24.26
2019-05-18T23:14:26.915Z,24.23
2019-05-18T23:17:00.247Z,24.21
2019-05-18T23:19:33.566Z,24.21
2019-05-18T23:22:06.916Z,24.51
2019-05-18T23:24:40.236Z,24.34
2019-05-18T23:27:13.578Z,24.49
2019-05-18T23:29:46.942Z,24.34
2019-05-18T23:32:20.283Z,24.28
2019-05-18T23:34:53.596Z,24.55
2019-05-18T23:37:26.947Z,24.34
2019-05-18T23:40:00.495Z,24.45
2019-05-18T23:42:33.834Z,24.29
2019-05-18T23:45:07.192Z,24.20
2019-05-18T23:47:40.542Z,24.20
2019-05-18T23:50:13.868Z,24.18
2019-05-18T23:52:47.237Z,24.22
2019-05-18T23:55:20.546Z,24.16
2019-05-18T23:57:53.885Z,24.10
